PBD6561 UUEE-USTR
Flight info
| Callsign | PBD6561 |
|---|---|
| Flight time | 2h 16m |
| Altitude | 33000 |
| Route | OLMUN3J OLMUN T629 IPSIL T830 LAMGU N604 OGSIN/K0859F350 P983 GINPA GINPA1M |
| Aircraft | B738/M-SDE2E3FGHIRWXY/LB1 |
Departure
| Time | 2026-04-22 13:26 |
|---|---|
| Airport | Sheremetyevo International Airport (UUEE) |
Arrival
| Time | 2026-04-22 15:42 |
|---|---|
| Airport | Roshchino International Airport (USTR) |
| Time | Latitude | Longitude | Altitude | Speed | Heading |
|---|---|---|---|---|---|
| 2026-04-22 12:42 | 55.96496 | 37.40065 | 637 ft | 0 kts | 74° |
| 2026-04-22 13:18 | 55.96498 | 37.40076 | 637 ft | 3 kts | 74° |
| 2026-04-22 13:19 | 55.96510 | 37.40159 | 637 ft | 8 kts | 74° |
| 2026-04-22 13:19 | 55.96563 | 37.40192 | 637 ft | 10 kts | 347° |
| 2026-04-22 13:19 | 55.96638 | 37.40155 | 637 ft | 12 kts | 344° |
| 2026-04-22 13:19 | 55.96721 | 37.40149 | 637 ft | 13 kts | 40° |
| 2026-04-22 13:20 | 55.96754 | 37.40312 | 637 ft | 15 kts | 75° |
| 2026-04-22 13:20 | 55.96783 | 37.40510 | 637 ft | 18 kts | 75° |
| 2026-04-22 13:20 | 55.96822 | 37.40763 | 637 ft | 22 kts | 75° |
| 2026-04-22 13:20 | 55.96863 | 37.41042 | 637 ft | 23 kts | 75° |
| 2026-04-22 13:21 | 55.96906 | 37.41329 | 637 ft | 24 kts | 75° |
| 2026-04-22 13:21 | 55.96952 | 37.41633 | 637 ft | 25 kts | 75° |
| 2026-04-22 13:21 | 55.96999 | 37.41947 | 637 ft | 26 kts | 75° |
| 2026-04-22 13:21 | 55.97047 | 37.42269 | 637 ft | 26 kts | 75° |
| 2026-04-22 13:22 | 55.97094 | 37.42585 | 637 ft | 25 kts | 75° |
| 2026-04-22 13:22 | 55.97138 | 37.42883 | 637 ft | 23 kts | 75° |
| 2026-04-22 13:22 | 55.97180 | 37.43160 | 637 ft | 22 kts | 75° |
| 2026-04-22 13:22 | 55.97220 | 37.43427 | 637 ft | 22 kts | 75° |
| 2026-04-22 13:23 | 55.97263 | 37.43711 | 637 ft | 25 kts | 75° |
| 2026-04-22 13:23 | 55.97309 | 37.44024 | 637 ft | 27 kts | 75° |
| 2026-04-22 13:23 | 55.97349 | 37.44295 | 637 ft | 15 kts | 74° |
| 2026-04-22 13:23 | 55.97413 | 37.44410 | 637 ft | 9 kts | 14° |
| 2026-04-22 13:24 | 55.97430 | 37.44414 | 637 ft | 1 kts | 4° |
| 2026-04-22 13:24 | 55.97451 | 37.44413 | 637 ft | 7 kts | 351° |
| 2026-04-22 13:24 | 55.97533 | 37.44375 | 637 ft | 16 kts | 341° |
| 2026-04-22 13:24 | 55.97538 | 37.44139 | 637 ft | 23 kts | 255° |
| 2026-04-22 13:25 | 55.97483 | 37.43769 | 637 ft | 55 kts | 254° |
| 2026-04-22 13:25 | 55.97331 | 37.42729 | 637 ft | 115 kts | 254° |
| 2026-04-22 13:25 | 55.97076 | 37.41065 | 639 ft | 163 kts | 257° |
| 2026-04-22 13:25 | 55.96771 | 37.39037 | 1201 ft | 165 kts | 256° |
| 2026-04-22 13:26 | 55.96407 | 37.37124 | 1829 ft | 171 kts | 248° |
| 2026-04-22 13:26 | 55.95712 | 37.35321 | 2330 ft | 178 kts | 234° |
| 2026-04-22 13:26 | 55.94962 | 37.33725 | 2596 ft | 184 kts | 234° |
| 2026-04-22 13:26 | 55.94159 | 37.31792 | 2504 ft | 183 kts | 239° |
| 2026-04-22 13:27 | 55.93502 | 37.29850 | 2372 ft | 198 kts | 243° |
| 2026-04-22 13:27 | 55.92787 | 37.27644 | 2011 ft | 212 kts | 241° |
| 2026-04-22 13:27 | 55.91968 | 37.25470 | 1854 ft | 206 kts | 238° |
| 2026-04-22 13:27 | 55.91105 | 37.23375 | 1859 ft | 217 kts | 232° |
| 2026-04-22 13:28 | 55.89886 | 37.21594 | 2012 ft | 247 kts | 207° |
| 2026-04-22 13:28 | 55.88298 | 37.21014 | 2588 ft | 263 kts | 181° |
| 2026-04-22 13:28 | 55.86386 | 37.21774 | 3382 ft | 274 kts | 158° |
| 2026-04-22 13:28 | 55.84871 | 37.23484 | 4189 ft | 277 kts | 139° |
| 2026-04-22 13:29 | 55.83781 | 37.26285 | 4982 ft | 282 kts | 109° |
| 2026-04-22 13:29 | 55.83512 | 37.29652 | 5750 ft | 283 kts | 85° |
| 2026-04-22 13:29 | 55.83929 | 37.33022 | 6522 ft | 284 kts | 67° |
| 2026-04-22 13:29 | 55.84790 | 37.36076 | 7314 ft | 282 kts | 51° |
| 2026-04-22 13:30 | 55.86164 | 37.38384 | 8094 ft | 277 kts | 29° |
| 2026-04-22 13:30 | 55.87819 | 37.39939 | 8857 ft | 277 kts | 22° |
| 2026-04-22 13:30 | 55.89423 | 37.41804 | 9623 ft | 282 kts | 38° |
| 2026-04-22 13:30 | 55.90741 | 37.44319 | 10324 ft | 288 kts | 47° |
| 2026-04-22 13:31 | 55.91929 | 37.47004 | 10708 ft | 303 kts | 49° |
| 2026-04-22 13:31 | 55.93083 | 37.50382 | 11121 ft | 321 kts | 64° |
| 2026-04-22 13:31 | 55.93666 | 37.54329 | 11493 ft | 341 kts | 81° |
| 2026-04-22 13:31 | 55.93591 | 37.58433 | 11832 ft | 358 kts | 95° |
| 2026-04-22 13:32 | 55.93326 | 37.61327 | 12049 ft | 369 kts | 98° |
| 2026-04-22 13:32 | 55.92619 | 37.67243 | 13026 ft | 372 kts | 101° |
| 2026-04-22 13:32 | 55.91971 | 37.72144 | 13802 ft | 375 kts | 104° |
| 2026-04-22 13:32 | 55.91005 | 37.76480 | 14469 ft | 381 kts | 114° |
| 2026-04-22 13:33 | 55.89779 | 37.80680 | 15128 ft | 385 kts | 117° |
| 2026-04-22 13:33 | 55.88486 | 37.84794 | 15773 ft | 388 kts | 117° |
| 2026-04-22 13:33 | 55.87235 | 37.88685 | 16343 ft | 392 kts | 117° |
| 2026-04-22 13:33 | 55.85905 | 37.92824 | 16956 ft | 395 kts | 117° |
| 2026-04-22 13:34 | 55.84530 | 37.97135 | 17577 ft | 398 kts | 117° |
| 2026-04-22 13:34 | 55.83166 | 38.01437 | 18173 ft | 401 kts | 116° |
| 2026-04-22 13:34 | 55.81796 | 38.05799 | 18765 ft | 403 kts | 115° |
| 2026-04-22 13:34 | 55.80603 | 38.10274 | 19318 ft | 404 kts | 108° |
| 2026-04-22 13:35 | 55.79823 | 38.15042 | 19885 ft | 402 kts | 97° |
| 2026-04-22 13:35 | 55.79535 | 38.19630 | 20394 ft | 401 kts | 89° |
| 2026-04-22 13:35 | 55.79543 | 38.24698 | 20930 ft | 403 kts | 84° |
| 2026-04-22 13:35 | 55.79693 | 38.29694 | 21444 ft | 405 kts | 82° |
| 2026-04-22 13:36 | 55.79884 | 38.34476 | 21961 ft | 407 kts | 81° |
| 2026-04-22 13:36 | 55.80302 | 38.39530 | 22473 ft | 407 kts | 75° |
| 2026-04-22 13:36 | 55.80953 | 38.44420 | 22958 ft | 408 kts | 71° |
| 2026-04-22 13:36 | 55.81725 | 38.49288 | 23474 ft | 409 kts | 69° |
| 2026-04-22 13:37 | 55.82567 | 38.54190 | 23913 ft | 412 kts | 67° |
| 2026-04-22 13:37 | 55.83443 | 38.59063 | 24277 ft | 416 kts | 68° |
| 2026-04-22 13:37 | 55.84348 | 38.64006 | 24747 ft | 418 kts | 68° |
| 2026-04-22 13:37 | 55.85240 | 38.68854 | 25213 ft | 420 kts | 68° |
| 2026-04-22 13:38 | 55.86251 | 38.73749 | 25819 ft | 416 kts | 64° |
| 2026-04-22 13:38 | 55.88665 | 38.83273 | 26423 ft | 423 kts | 60° |
| 2026-04-22 13:38 | 55.89958 | 38.87993 | 26828 ft | 425 kts | 60° |
| 2026-04-22 13:39 | 55.91283 | 38.92812 | 27235 ft | 427 kts | 60° |
| 2026-04-22 13:39 | 55.92587 | 38.97598 | 27606 ft | 429 kts | 60° |
| 2026-04-22 13:39 | 55.93893 | 39.02431 | 28086 ft | 429 kts | 60° |
| 2026-04-22 13:39 | 55.95187 | 39.07257 | 28512 ft | 429 kts | 61° |
| 2026-04-22 13:40 | 55.96504 | 39.12167 | 28719 ft | 435 kts | 60° |
| 2026-04-22 13:40 | 55.97805 | 39.17058 | 29053 ft | 437 kts | 60° |
| 2026-04-22 13:40 | 55.99105 | 39.21969 | 29474 ft | 437 kts | 60° |
| 2026-04-22 13:40 | 56.00397 | 39.26863 | 29960 ft | 436 kts | 60° |
| 2026-04-22 13:41 | 56.01695 | 39.31800 | 30423 ft | 435 kts | 60° |
| 2026-04-22 13:41 | 56.02953 | 39.36593 | 30844 ft | 434 kts | 60° |
| 2026-04-22 13:41 | 56.04241 | 39.41503 | 31224 ft | 433 kts | 60° |
| 2026-04-22 13:41 | 56.05531 | 39.46428 | 31485 ft | 435 kts | 60° |
| 2026-04-22 13:42 | 56.06822 | 39.51356 | 31695 ft | 438 kts | 60° |
| 2026-04-22 13:42 | 56.08197 | 39.56213 | 32171 ft | 432 kts | 57° |
| 2026-04-22 13:42 | 56.09705 | 39.60836 | 32661 ft | 426 kts | 54° |
| 2026-04-22 13:42 | 56.11253 | 39.65242 | 32967 ft | 425 kts | 54° |
| 2026-04-22 13:43 | 56.12887 | 39.69744 | 33139 ft | 428 kts | 53° |
| 2026-04-22 13:43 | 56.14540 | 39.74259 | 33353 ft | 429 kts | 53° |
| 2026-04-22 13:43 | 56.16188 | 39.78777 | 33565 ft | 431 kts | 54° |
| 2026-04-22 13:43 | 56.17819 | 39.83276 | 33765 ft | 432 kts | 54° |
| 2026-04-22 13:44 | 56.19359 | 39.87552 | 33961 ft | 433 kts | 54° |
| 2026-04-22 13:44 | 56.21053 | 39.92283 | 34156 ft | 434 kts | 54° |
| 2026-04-22 13:44 | 56.22689 | 39.96872 | 34365 ft | 434 kts | 54° |
| 2026-04-22 13:44 | 56.24314 | 40.01445 | 34555 ft | 434 kts | 54° |
| 2026-04-22 13:45 | 56.27550 | 40.10601 | 34676 ft | 435 kts | 54° |
| 2026-04-22 13:45 | 56.30756 | 40.19714 | 34685 ft | 433 kts | 54° |
| 2026-04-22 13:46 | 56.33978 | 40.28907 | 34676 ft | 434 kts | 54° |
| 2026-04-22 13:46 | 56.37193 | 40.38121 | 34669 ft | 435 kts | 54° |
| 2026-04-22 13:47 | 56.40411 | 40.47374 | 34663 ft | 437 kts | 54° |
| 2026-04-22 13:47 | 56.43618 | 40.56681 | 34649 ft | 436 kts | 56° |
| 2026-04-22 13:48 | 56.46347 | 40.66535 | 34649 ft | 439 kts | 66° |
| 2026-04-22 13:48 | 56.48216 | 40.77060 | 34647 ft | 443 kts | 71° |
| 2026-04-22 13:49 | 56.49816 | 40.87883 | 34641 ft | 443 kts | 72° |
| 2026-04-22 13:49 | 56.51384 | 40.98720 | 34640 ft | 443 kts | 72° |
| 2026-04-22 13:50 | 56.52957 | 41.09520 | 34643 ft | 443 kts | 72° |
| 2026-04-22 13:50 | 56.54535 | 41.20330 | 34650 ft | 445 kts | 72° |
| 2026-04-22 13:51 | 56.56108 | 41.31121 | 34650 ft | 446 kts | 72° |
| 2026-04-22 13:51 | 56.57687 | 41.42010 | 34654 ft | 443 kts | 72° |
| 2026-04-22 13:52 | 56.59244 | 41.52803 | 34657 ft | 443 kts | 72° |
| 2026-04-22 13:52 | 56.60798 | 41.63631 | 34654 ft | 444 kts | 72° |
| 2026-04-22 13:53 | 56.62340 | 41.74452 | 34650 ft | 444 kts | 73° |
| 2026-04-22 13:53 | 56.63876 | 41.85304 | 34647 ft | 445 kts | 73° |
| 2026-04-22 13:54 | 56.65412 | 41.96251 | 34657 ft | 445 kts | 73° |
| 2026-04-22 13:54 | 56.66932 | 42.07136 | 34665 ft | 445 kts | 73° |
| 2026-04-22 13:55 | 56.68442 | 42.18035 | 34656 ft | 445 kts | 73° |
| 2026-04-22 13:55 | 56.69948 | 42.28990 | 34642 ft | 444 kts | 73° |
| 2026-04-22 13:56 | 56.71437 | 42.39909 | 34646 ft | 444 kts | 73° |
| 2026-04-22 13:56 | 56.72913 | 42.50805 | 34648 ft | 445 kts | 73° |
| 2026-04-22 13:57 | 56.74447 | 42.61712 | 34632 ft | 445 kts | 71° |
| 2026-04-22 13:57 | 56.76220 | 42.72563 | 34624 ft | 446 kts | 71° |
| 2026-04-22 13:58 | 56.78039 | 42.83404 | 34630 ft | 445 kts | 71° |
| 2026-04-22 13:58 | 56.79816 | 42.94174 | 34632 ft | 445 kts | 71° |
| 2026-04-22 13:59 | 56.81583 | 43.05054 | 34639 ft | 445 kts | 71° |
| 2026-04-22 13:59 | 56.83323 | 43.15904 | 34624 ft | 446 kts | 71° |
| 2026-04-22 14:00 | 56.85045 | 43.26751 | 34637 ft | 445 kts | 71° |
| 2026-04-22 14:00 | 56.86763 | 43.37659 | 34659 ft | 447 kts | 71° |
| 2026-04-22 14:01 | 56.88470 | 43.48579 | 34638 ft | 446 kts | 71° |
| 2026-04-22 14:01 | 56.90173 | 43.59540 | 34621 ft | 447 kts | 71° |
| 2026-04-22 14:02 | 56.91863 | 43.70485 | 34632 ft | 448 kts | 72° |
| 2026-04-22 14:02 | 56.93548 | 43.81470 | 34639 ft | 448 kts | 72° |
| 2026-04-22 14:03 | 56.95213 | 43.92393 | 34643 ft | 448 kts | 72° |
| 2026-04-22 14:03 | 56.96887 | 44.03445 | 34632 ft | 449 kts | 72° |
| 2026-04-22 14:04 | 56.98552 | 44.14518 | 34620 ft | 449 kts | 72° |
| 2026-04-22 14:04 | 57.00196 | 44.25525 | 34626 ft | 450 kts | 72° |
| 2026-04-22 14:05 | 57.01836 | 44.36581 | 34621 ft | 449 kts | 72° |
| 2026-04-22 14:06 | 57.04293 | 44.53278 | 34633 ft | 450 kts | 72° |
| 2026-04-22 14:06 | 57.05907 | 44.64348 | 34613 ft | 449 kts | 72° |
| 2026-04-22 14:07 | 57.07530 | 44.75549 | 34623 ft | 451 kts | 73° |
| 2026-04-22 14:07 | 57.09129 | 44.86664 | 34624 ft | 451 kts | 73° |
| 2026-04-22 14:08 | 57.10726 | 44.97844 | 34634 ft | 451 kts | 73° |
| 2026-04-22 14:08 | 57.12314 | 45.09038 | 34614 ft | 451 kts | 73° |
| 2026-04-22 14:09 | 57.13897 | 45.20283 | 34608 ft | 452 kts | 73° |
| 2026-04-22 14:09 | 57.15463 | 45.31492 | 34622 ft | 452 kts | 73° |
| 2026-04-22 14:10 | 57.17015 | 45.42675 | 34637 ft | 451 kts | 73° |
| 2026-04-22 14:10 | 57.18563 | 45.53903 | 34635 ft | 452 kts | 73° |
| 2026-04-22 14:11 | 57.20081 | 45.65109 | 34635 ft | 453 kts | 75° |
| 2026-04-22 14:11 | 57.21660 | 45.76364 | 34637 ft | 455 kts | 76° |
| 2026-04-22 14:12 | 57.23125 | 45.87760 | 34629 ft | 454 kts | 75° |
| 2026-04-22 14:12 | 57.24629 | 45.99011 | 34623 ft | 454 kts | 75° |
| 2026-04-22 14:13 | 57.26167 | 46.10323 | 34632 ft | 454 kts | 75° |
| 2026-04-22 14:13 | 57.27678 | 46.21602 | 34628 ft | 454 kts | 75° |
| 2026-04-22 14:14 | 57.29163 | 46.32957 | 34623 ft | 454 kts | 75° |
| 2026-04-22 14:14 | 57.30634 | 46.44285 | 34608 ft | 455 kts | 75° |
| 2026-04-22 14:15 | 57.32107 | 46.55664 | 34602 ft | 455 kts | 75° |
| 2026-04-22 14:15 | 57.33564 | 46.67040 | 34621 ft | 456 kts | 76° |
| 2026-04-22 14:16 | 57.35239 | 46.78367 | 34632 ft | 455 kts | 70° |
| 2026-04-22 14:16 | 57.37605 | 46.89191 | 34629 ft | 454 kts | 65° |
| 2026-04-22 14:17 | 57.40204 | 46.99764 | 34626 ft | 454 kts | 64° |
| 2026-04-22 14:17 | 57.42851 | 47.10411 | 34623 ft | 455 kts | 64° |
| 2026-04-22 14:18 | 57.45472 | 47.21118 | 34623 ft | 456 kts | 64° |
| 2026-04-22 14:18 | 57.48049 | 47.31810 | 34620 ft | 457 kts | 64° |
| 2026-04-22 14:19 | 57.50632 | 47.42598 | 34617 ft | 459 kts | 64° |
| 2026-04-22 14:19 | 57.53222 | 47.53478 | 34622 ft | 458 kts | 64° |
| 2026-04-22 14:20 | 57.57048 | 47.69656 | 34622 ft | 457 kts | 65° |
| 2026-04-22 14:20 | 57.59612 | 47.80571 | 34620 ft | 458 kts | 65° |
| 2026-04-22 14:21 | 57.63425 | 47.96898 | 34610 ft | 457 kts | 65° |
| 2026-04-22 14:22 | 57.67220 | 48.13294 | 34611 ft | 459 kts | 65° |
| 2026-04-22 14:23 | 57.70987 | 48.29736 | 34618 ft | 458 kts | 65° |
| 2026-04-22 14:23 | 57.73447 | 48.40695 | 34629 ft | 459 kts | 68° |
| 2026-04-22 14:24 | 57.75291 | 48.52168 | 34632 ft | 460 kts | 77° |
| 2026-04-22 14:24 | 57.76316 | 48.63974 | 34622 ft | 461 kts | 81° |
| 2026-04-22 14:25 | 57.77113 | 48.75838 | 34619 ft | 461 kts | 83° |
| 2026-04-22 14:25 | 57.77897 | 48.87857 | 34617 ft | 462 kts | 82° |
| 2026-04-22 14:26 | 57.78678 | 48.99728 | 34617 ft | 462 kts | 82° |
| 2026-04-22 14:26 | 57.79476 | 49.11739 | 34619 ft | 462 kts | 82° |
| 2026-04-22 14:27 | 57.80265 | 49.23624 | 34617 ft | 463 kts | 82° |
| 2026-04-22 14:27 | 57.81059 | 49.35671 | 34625 ft | 462 kts | 82° |
| 2026-04-22 14:28 | 57.81834 | 49.47568 | 34627 ft | 461 kts | 82° |
| 2026-04-22 14:28 | 57.82602 | 49.59523 | 34615 ft | 462 kts | 82° |
| 2026-04-22 14:29 | 57.83362 | 49.71532 | 34618 ft | 463 kts | 83° |
| 2026-04-22 14:29 | 57.84108 | 49.83517 | 34617 ft | 464 kts | 83° |
| 2026-04-22 14:30 | 57.84849 | 49.95592 | 34611 ft | 463 kts | 83° |
| 2026-04-22 14:30 | 57.85572 | 50.07556 | 34612 ft | 464 kts | 83° |
| 2026-04-22 14:31 | 57.86295 | 50.19637 | 34622 ft | 463 kts | 83° |
| 2026-04-22 14:31 | 57.87007 | 50.31694 | 34637 ft | 463 kts | 83° |
| 2026-04-22 14:32 | 57.87705 | 50.43700 | 34641 ft | 463 kts | 83° |
| 2026-04-22 14:32 | 57.88394 | 50.55771 | 34633 ft | 464 kts | 83° |
| 2026-04-22 14:33 | 57.89071 | 50.67850 | 34628 ft | 465 kts | 84° |
| 2026-04-22 14:33 | 57.89737 | 50.79945 | 34621 ft | 464 kts | 84° |
| 2026-04-22 14:34 | 57.90390 | 50.92005 | 34630 ft | 465 kts | 84° |
| 2026-04-22 14:34 | 57.91030 | 51.04047 | 34637 ft | 465 kts | 84° |
| 2026-04-22 14:35 | 57.91663 | 51.16171 | 34631 ft | 465 kts | 84° |
| 2026-04-22 14:35 | 57.92284 | 51.28307 | 34637 ft | 466 kts | 84° |
| 2026-04-22 14:36 | 57.92895 | 51.40456 | 34633 ft | 466 kts | 84° |
| 2026-04-22 14:36 | 57.93491 | 51.52535 | 34624 ft | 465 kts | 84° |
| 2026-04-22 14:37 | 57.94086 | 51.64656 | 34627 ft | 466 kts | 84° |
| 2026-04-22 14:37 | 57.94672 | 51.76806 | 34630 ft | 467 kts | 85° |
| 2026-04-22 14:38 | 57.95249 | 51.89032 | 34633 ft | 466 kts | 85° |
| 2026-04-22 14:38 | 57.95812 | 52.01201 | 34641 ft | 466 kts | 85° |
| 2026-04-22 14:39 | 57.96365 | 52.13403 | 34638 ft | 467 kts | 85° |
| 2026-04-22 14:39 | 57.96904 | 52.25589 | 34637 ft | 468 kts | 85° |
| 2026-04-22 14:40 | 57.97693 | 52.43882 | 34637 ft | 468 kts | 85° |
| 2026-04-22 14:40 | 57.98205 | 52.56128 | 34636 ft | 468 kts | 85° |
| 2026-04-22 14:41 | 57.98705 | 52.68351 | 34642 ft | 468 kts | 86° |
| 2026-04-22 14:41 | 57.99197 | 52.80688 | 34643 ft | 469 kts | 86° |
| 2026-04-22 14:42 | 57.99675 | 52.92949 | 34653 ft | 469 kts | 86° |
| 2026-04-22 14:42 | 58.00142 | 53.05216 | 34658 ft | 470 kts | 86° |
| 2026-04-22 14:43 | 58.00596 | 53.17484 | 34656 ft | 470 kts | 86° |
| 2026-04-22 14:43 | 58.01040 | 53.29823 | 34654 ft | 469 kts | 86° |
| 2026-04-22 14:44 | 58.01470 | 53.42071 | 34641 ft | 469 kts | 86° |
| 2026-04-22 14:44 | 58.01892 | 53.54459 | 34631 ft | 470 kts | 86° |
| 2026-04-22 14:45 | 58.02301 | 53.66804 | 34653 ft | 470 kts | 87° |
| 2026-04-22 14:45 | 58.02695 | 53.79072 | 34655 ft | 470 kts | 87° |
| 2026-04-22 14:46 | 58.03079 | 53.91377 | 34647 ft | 470 kts | 87° |
| 2026-04-22 14:46 | 58.03447 | 54.03553 | 34638 ft | 471 kts | 87° |
| 2026-04-22 14:47 | 58.03815 | 54.15940 | 34633 ft | 471 kts | 87° |
| 2026-04-22 14:47 | 58.04174 | 54.28312 | 34632 ft | 471 kts | 87° |
| 2026-04-22 14:48 | 58.04519 | 54.40630 | 34650 ft | 472 kts | 87° |
| 2026-04-22 14:48 | 58.04854 | 54.52995 | 34659 ft | 471 kts | 87° |
| 2026-04-22 14:49 | 58.05176 | 54.65377 | 34655 ft | 471 kts | 88° |
| 2026-04-22 14:49 | 58.05365 | 54.77704 | 34661 ft | 471 kts | 92° |
| 2026-04-22 14:50 | 58.04845 | 54.89977 | 34657 ft | 470 kts | 98° |
| 2026-04-22 14:50 | 58.03958 | 55.02337 | 34654 ft | 471 kts | 99° |
| 2026-04-22 14:51 | 58.03014 | 55.14555 | 34674 ft | 471 kts | 99° |
| 2026-04-22 14:51 | 58.02067 | 55.26889 | 34678 ft | 471 kts | 99° |
| 2026-04-22 14:52 | 58.01146 | 55.39092 | 34673 ft | 471 kts | 99° |
| 2026-04-22 14:52 | 58.00239 | 55.51259 | 34681 ft | 472 kts | 99° |
| 2026-04-22 14:53 | 57.99316 | 55.63580 | 34690 ft | 472 kts | 99° |
| 2026-04-22 14:53 | 57.98386 | 55.75842 | 34688 ft | 471 kts | 100° |
| 2026-04-22 14:54 | 57.97454 | 55.87986 | 34703 ft | 472 kts | 100° |
| 2026-04-22 14:54 | 57.96498 | 56.00318 | 34703 ft | 471 kts | 100° |
| 2026-04-22 14:55 | 57.95540 | 56.12574 | 34699 ft | 472 kts | 100° |
| 2026-04-22 14:55 | 57.94572 | 56.24780 | 34700 ft | 473 kts | 100° |
| 2026-04-22 14:56 | 57.93592 | 56.37003 | 34692 ft | 473 kts | 100° |
| 2026-04-22 14:56 | 57.92596 | 56.49249 | 34678 ft | 474 kts | 100° |
| 2026-04-22 14:57 | 57.91584 | 56.61550 | 34680 ft | 474 kts | 100° |
| 2026-04-22 14:57 | 57.90557 | 56.73875 | 34671 ft | 474 kts | 101° |
| 2026-04-22 14:58 | 57.89527 | 56.86107 | 34684 ft | 473 kts | 101° |
| 2026-04-22 14:58 | 57.88485 | 56.98326 | 34687 ft | 472 kts | 101° |
| 2026-04-22 14:59 | 57.87432 | 57.10527 | 34678 ft | 473 kts | 102° |
| 2026-04-22 14:59 | 57.86364 | 57.22749 | 34678 ft | 474 kts | 102° |
| 2026-04-22 15:00 | 57.85274 | 57.35068 | 34673 ft | 475 kts | 102° |
| 2026-04-22 15:00 | 57.84185 | 57.47241 | 34663 ft | 475 kts | 102° |
| 2026-04-22 15:01 | 57.83079 | 57.59483 | 34661 ft | 475 kts | 102° |
| 2026-04-22 15:01 | 57.81951 | 57.71820 | 34663 ft | 475 kts | 103° |
| 2026-04-22 15:02 | 57.80821 | 57.84038 | 34673 ft | 476 kts | 103° |
| 2026-04-22 15:02 | 57.79672 | 57.96314 | 34673 ft | 476 kts | 103° |
| 2026-04-22 15:03 | 57.78513 | 58.08580 | 34675 ft | 477 kts | 103° |
| 2026-04-22 15:03 | 57.77345 | 58.20867 | 34672 ft | 477 kts | 103° |
| 2026-04-22 15:04 | 57.76170 | 58.33118 | 34674 ft | 477 kts | 103° |
| 2026-04-22 15:04 | 57.74982 | 58.45410 | 34687 ft | 478 kts | 103° |
| 2026-04-22 15:05 | 57.73795 | 58.57635 | 34684 ft | 478 kts | 103° |
| 2026-04-22 15:05 | 57.72594 | 58.69875 | 34683 ft | 477 kts | 104° |
| 2026-04-22 15:06 | 57.71379 | 58.82106 | 34687 ft | 478 kts | 104° |
| 2026-04-22 15:06 | 57.70152 | 58.94336 | 34681 ft | 478 kts | 104° |
| 2026-04-22 15:07 | 57.68902 | 59.06659 | 34658 ft | 478 kts | 104° |
| 2026-04-22 15:07 | 57.67666 | 59.18722 | 34648 ft | 478 kts | 104° |
| 2026-04-22 15:08 | 57.66399 | 59.30962 | 34659 ft | 478 kts | 104° |
| 2026-04-22 15:08 | 57.65136 | 59.43053 | 34665 ft | 477 kts | 104° |
| 2026-04-22 15:09 | 57.63847 | 59.55262 | 34667 ft | 478 kts | 104° |
| 2026-04-22 15:09 | 57.62559 | 59.67351 | 34666 ft | 478 kts | 105° |
| 2026-04-22 15:10 | 57.61253 | 59.79500 | 34664 ft | 479 kts | 105° |
| 2026-04-22 15:10 | 57.59936 | 59.91632 | 34671 ft | 479 kts | 105° |
| 2026-04-22 15:11 | 57.58602 | 60.03785 | 34677 ft | 480 kts | 105° |
| 2026-04-22 15:11 | 57.57255 | 60.15936 | 34675 ft | 481 kts | 105° |
| 2026-04-22 15:12 | 57.55888 | 60.28143 | 34678 ft | 481 kts | 105° |
| 2026-04-22 15:12 | 57.54511 | 60.40344 | 34684 ft | 482 kts | 105° |
| 2026-04-22 15:13 | 57.53115 | 60.52596 | 34692 ft | 481 kts | 105° |
| 2026-04-22 15:13 | 57.52013 | 60.64836 | 34690 ft | 483 kts | 99° |
| 2026-04-22 15:14 | 57.51524 | 60.77306 | 34678 ft | 485 kts | 96° |
| 2026-04-22 15:14 | 57.51221 | 60.89896 | 34681 ft | 488 kts | 96° |
| 2026-04-22 15:15 | 57.50911 | 61.02442 | 34687 ft | 487 kts | 96° |
| 2026-04-22 15:15 | 57.50553 | 61.14954 | 34688 ft | 487 kts | 96° |
| 2026-04-22 15:16 | 57.50154 | 61.27577 | 34701 ft | 487 kts | 97° |
| 2026-04-22 15:16 | 57.49737 | 61.40050 | 34709 ft | 487 kts | 97° |
| 2026-04-22 15:17 | 57.49302 | 61.52694 | 34707 ft | 489 kts | 97° |
| 2026-04-22 15:17 | 57.48856 | 61.65267 | 34705 ft | 489 kts | 98° |
| 2026-04-22 15:18 | 57.48397 | 61.77853 | 34699 ft | 488 kts | 98° |
| 2026-04-22 15:18 | 57.47928 | 61.90414 | 34708 ft | 489 kts | 98° |
| 2026-04-22 15:19 | 57.47445 | 62.03077 | 34533 ft | 485 kts | 98° |
| 2026-04-22 15:19 | 57.47202 | 62.09331 | 34107 ft | 482 kts | 98° |
| 2026-04-22 15:19 | 57.46959 | 62.15530 | 33755 ft | 477 kts | 98° |
| 2026-04-22 15:20 | 57.46796 | 62.19619 | 33529 ft | 477 kts | 99° |
| 2026-04-22 15:20 | 57.46466 | 62.27851 | 32914 ft | 479 kts | 99° |
| 2026-04-22 15:20 | 57.46219 | 62.34008 | 32662 ft | 473 kts | 99° |
| 2026-04-22 15:20 | 57.45977 | 62.40053 | 32279 ft | 471 kts | 100° |
| 2026-04-22 15:21 | 57.45732 | 62.46108 | 31895 ft | 470 kts | 101° |
| 2026-04-22 15:21 | 57.45479 | 62.52226 | 31475 ft | 469 kts | 101° |
| 2026-04-22 15:21 | 57.45228 | 62.58223 | 31065 ft | 467 kts | 101° |
| 2026-04-22 15:21 | 57.44973 | 62.64238 | 30647 ft | 461 kts | 101° |
| 2026-04-22 15:22 | 57.44723 | 62.70154 | 30201 ft | 457 kts | 102° |
| 2026-04-22 15:22 | 57.44471 | 62.75983 | 29749 ft | 452 kts | 102° |
| 2026-04-22 15:22 | 57.44217 | 62.81826 | 29245 ft | 449 kts | 102° |
| 2026-04-22 15:22 | 57.43960 | 62.87622 | 28730 ft | 446 kts | 101° |
| 2026-04-22 15:23 | 57.43705 | 62.93313 | 28257 ft | 442 kts | 101° |
| 2026-04-22 15:23 | 57.43449 | 62.98985 | 27765 ft | 439 kts | 101° |
| 2026-04-22 15:23 | 57.43191 | 63.04598 | 27275 ft | 436 kts | 101° |
| 2026-04-22 15:23 | 57.42932 | 63.10191 | 26850 ft | 431 kts | 101° |
| 2026-04-22 15:24 | 57.42676 | 63.15681 | 26343 ft | 429 kts | 101° |
| 2026-04-22 15:24 | 57.42421 | 63.21151 | 25933 ft | 424 kts | 101° |
| 2026-04-22 15:24 | 57.42161 | 63.26634 | 25441 ft | 421 kts | 100° |
| 2026-04-22 15:24 | 57.41902 | 63.32038 | 24959 ft | 418 kts | 100° |
| 2026-04-22 15:25 | 57.41645 | 63.37343 | 24537 ft | 414 kts | 100° |
| 2026-04-22 15:25 | 57.41385 | 63.42663 | 24049 ft | 412 kts | 100° |
| 2026-04-22 15:25 | 57.41125 | 63.47913 | 23597 ft | 408 kts | 100° |
| 2026-04-22 15:25 | 57.40863 | 63.53178 | 23139 ft | 405 kts | 100° |
| 2026-04-22 15:26 | 57.40601 | 63.58379 | 22670 ft | 402 kts | 100° |
| 2026-04-22 15:26 | 57.40340 | 63.63529 | 22195 ft | 400 kts | 100° |
| 2026-04-22 15:26 | 57.40078 | 63.68663 | 21790 ft | 395 kts | 101° |
| 2026-04-22 15:26 | 57.39803 | 63.73707 | 21271 ft | 394 kts | 102° |
| 2026-04-22 15:27 | 57.39381 | 63.78710 | 20845 ft | 387 kts | 107° |
| 2026-04-22 15:27 | 57.38790 | 63.83537 | 20398 ft | 383 kts | 110° |
| 2026-04-22 15:27 | 57.38114 | 63.88291 | 19965 ft | 379 kts | 111° |
| 2026-04-22 15:27 | 57.37415 | 63.92998 | 19529 ft | 376 kts | 111° |
| 2026-04-22 15:28 | 57.36728 | 63.97621 | 19085 ft | 373 kts | 110° |
| 2026-04-22 15:28 | 57.36044 | 64.02265 | 18621 ft | 371 kts | 110° |
| 2026-04-22 15:28 | 57.35367 | 64.06881 | 18181 ft | 368 kts | 110° |
| 2026-04-22 15:28 | 57.34702 | 64.11446 | 17741 ft | 366 kts | 110° |
| 2026-04-22 15:29 | 57.34049 | 64.15947 | 17305 ft | 364 kts | 110° |
| 2026-04-22 15:29 | 57.33397 | 64.20460 | 16874 ft | 361 kts | 109° |
| 2026-04-22 15:29 | 57.32744 | 64.24983 | 16464 ft | 358 kts | 109° |
| 2026-04-22 15:30 | 57.31673 | 64.32390 | 15752 ft | 354 kts | 109° |
| 2026-04-22 15:30 | 57.30832 | 64.38184 | 15183 ft | 351 kts | 109° |
| 2026-04-22 15:30 | 57.30197 | 64.42545 | 14754 ft | 349 kts | 109° |
| 2026-04-22 15:30 | 57.29577 | 64.46871 | 14347 ft | 347 kts | 107° |
| 2026-04-22 15:31 | 57.29181 | 64.51296 | 13961 ft | 347 kts | 96° |
| 2026-04-22 15:31 | 57.29378 | 64.55769 | 13546 ft | 348 kts | 78° |
| 2026-04-22 15:31 | 57.30002 | 64.60093 | 13137 ft | 347 kts | 73° |
| 2026-04-22 15:31 | 57.30719 | 64.64294 | 12744 ft | 344 kts | 72° |
| 2026-04-22 15:32 | 57.31450 | 64.68499 | 12351 ft | 341 kts | 73° |
| 2026-04-22 15:32 | 57.32155 | 64.72679 | 11935 ft | 339 kts | 74° |
| 2026-04-22 15:32 | 57.32829 | 64.76812 | 11550 ft | 336 kts | 74° |
| 2026-04-22 15:32 | 57.33491 | 64.80967 | 11138 ft | 334 kts | 74° |
| 2026-04-22 15:33 | 57.34148 | 64.85136 | 10730 ft | 332 kts | 75° |
| 2026-04-22 15:33 | 57.34789 | 64.89221 | 10359 ft | 329 kts | 74° |
| 2026-04-22 15:33 | 57.35426 | 64.93288 | 9957 ft | 327 kts | 75° |
| 2026-04-22 15:33 | 57.36054 | 64.97303 | 9600 ft | 322 kts | 75° |
| 2026-04-22 15:34 | 57.36670 | 65.01238 | 9413 ft | 308 kts | 74° |
| 2026-04-22 15:34 | 57.37254 | 65.04969 | 9192 ft | 296 kts | 75° |
| 2026-04-22 15:34 | 57.37803 | 65.08634 | 8758 ft | 294 kts | 78° |
| 2026-04-22 15:34 | 57.38049 | 65.12384 | 8323 ft | 289 kts | 92° |
| 2026-04-22 15:35 | 57.37985 | 65.14859 | 8026 ft | 286 kts | 98° |
| 2026-04-22 15:35 | 57.37673 | 65.19692 | 7468 ft | 281 kts | 100° |
| 2026-04-22 15:35 | 57.37427 | 65.23293 | 7043 ft | 279 kts | 99° |
| 2026-04-22 15:35 | 57.37215 | 65.26834 | 6622 ft | 276 kts | 98° |
| 2026-04-22 15:36 | 57.37022 | 65.30409 | 6181 ft | 275 kts | 98° |
| 2026-04-22 15:36 | 57.36840 | 65.33929 | 5722 ft | 274 kts | 97° |
| 2026-04-22 15:36 | 57.36640 | 65.37425 | 5291 ft | 271 kts | 101° |
| 2026-04-22 15:36 | 57.36137 | 65.40742 | 4839 ft | 266 kts | 120° |
| 2026-04-22 15:37 | 57.35003 | 65.43344 | 4389 ft | 259 kts | 141° |
| 2026-04-22 15:37 | 57.33617 | 65.45469 | 4089 ft | 251 kts | 144° |
| 2026-04-22 15:37 | 57.32303 | 65.47455 | 3872 ft | 242 kts | 143° |
| 2026-04-22 15:37 | 57.30966 | 65.49339 | 3583 ft | 236 kts | 151° |
| 2026-04-22 15:38 | 57.29463 | 65.50390 | 3182 ft | 228 kts | 180° |
| 2026-04-22 15:38 | 57.26913 | 65.48112 | 2673 ft | 197 kts | 229° |
| 2026-04-22 15:38 | 57.26000 | 65.46320 | 2389 ft | 182 kts | 228° |
| 2026-04-22 15:39 | 57.25155 | 65.44693 | 2173 ft | 167 kts | 229° |
| 2026-04-22 15:39 | 57.24414 | 65.43214 | 2083 ft | 150 kts | 230° |
| 2026-04-22 15:39 | 57.23723 | 65.41838 | 1894 ft | 141 kts | 230° |
| 2026-04-22 15:39 | 57.23064 | 65.40517 | 1700 ft | 139 kts | 230° |
| 2026-04-22 15:40 | 57.22403 | 65.39175 | 1496 ft | 141 kts | 230° |
| 2026-04-22 15:40 | 57.21738 | 65.37858 | 1308 ft | 142 kts | 230° |
| 2026-04-22 15:40 | 57.21067 | 65.36523 | 1111 ft | 141 kts | 231° |
| 2026-04-22 15:40 | 57.20406 | 65.35159 | 914 ft | 141 kts | 230° |
| 2026-04-22 15:41 | 57.19742 | 65.33802 | 716 ft | 141 kts | 229° |
| 2026-04-22 15:41 | 57.19074 | 65.32470 | 534 ft | 141 kts | 229° |
| 2026-04-22 15:41 | 57.18404 | 65.31107 | 384 ft | 133 kts | 229° |
| 2026-04-22 15:41 | 57.17915 | 65.30116 | 383 ft | 76 kts | 226° |
| 2026-04-22 15:42 | 57.17654 | 65.29578 | 383 ft | 41 kts | 228° |
| 2026-04-22 15:42 | 57.17527 | 65.29334 | 383 ft | 15 kts | 210° |
| 2026-04-22 15:42 | 57.17444 | 65.29409 | 383 ft | 13 kts | 138° |
| 2026-04-22 15:42 | 57.17372 | 65.29509 | 383 ft | 12 kts | 167° |
| 2026-04-22 15:43 | 57.17307 | 65.29432 | 383 ft | 11 kts | 228° |
| 2026-04-22 15:43 | 57.17270 | 65.29360 | 383 ft | 2 kts | 141° |
| 2026-04-22 15:43 | 57.17286 | 65.29401 | 383 ft | 6 kts | 41° |
| 2026-04-22 15:43 | 57.17341 | 65.29500 | 383 ft | 14 kts | 48° |
| 2026-04-22 15:44 | 57.17424 | 65.29668 | 383 ft | 21 kts | 47° |
| 2026-04-22 15:44 | 57.17540 | 65.29903 | 383 ft | 27 kts | 47° |
| 2026-04-22 15:44 | 57.17674 | 65.30174 | 383 ft | 29 kts | 47° |
| 2026-04-22 15:44 | 57.17818 | 65.30467 | 383 ft | 32 kts | 47° |
| 2026-04-22 15:45 | 57.17973 | 65.30783 | 383 ft | 34 kts | 47° |
| 2026-04-22 15:45 | 57.18139 | 65.31117 | 383 ft | 34 kts | 47° |
| 2026-04-22 15:45 | 57.18294 | 65.31433 | 383 ft | 28 kts | 47° |
| 2026-04-22 15:45 | 57.18424 | 65.31690 | 383 ft | 24 kts | 47° |
| 2026-04-22 15:46 | 57.18458 | 65.31976 | 383 ft | 22 kts | 87° |
| 2026-04-22 15:46 | 57.18464 | 65.32262 | 383 ft | 21 kts | 88° |
| 2026-04-22 15:46 | 57.18469 | 65.32534 | 383 ft | 20 kts | 88° |
| 2026-04-22 15:46 | 57.18473 | 65.32791 | 383 ft | 19 kts | 88° |
| 2026-04-22 15:47 | 57.18478 | 65.33034 | 383 ft | 18 kts | 88° |
| 2026-04-22 15:47 | 57.18541 | 65.33213 | 383 ft | 16 kts | 45° |
| 2026-04-22 15:47 | 57.18615 | 65.33368 | 383 ft | 15 kts | 68° |
| 2026-04-22 15:47 | 57.18630 | 65.33539 | 383 ft | 11 kts | 81° |
| 2026-04-22 15:48 | 57.18590 | 65.33652 | 383 ft | 10 kts | 134° |
| 2026-04-22 15:48 | 57.18538 | 65.33749 | 383 ft | 12 kts | 135° |
| 2026-04-22 15:48 | 57.18462 | 65.33889 | 383 ft | 18 kts | 134° |
| 2026-04-22 15:48 | 57.18356 | 65.34086 | 383 ft | 24 kts | 135° |
| 2026-04-22 15:49 | 57.18228 | 65.34322 | 383 ft | 26 kts | 134° |
| 2026-04-22 15:49 | 57.18115 | 65.34534 | 383 ft | 16 kts | 134° |
| 2026-04-22 15:49 | 57.18054 | 65.34647 | 383 ft | 10 kts | 135° |
| 2026-04-22 15:49 | 57.18015 | 65.34729 | 383 ft | 7 kts | 114° |
| 2026-04-22 15:50 | 57.18032 | 65.34808 | 383 ft | 5 kts | 47° |
| 2026-04-22 15:50 | 57.18046 | 65.34837 | 383 ft | 1 kts | 45° |
| 2026-04-22 15:50 | 57.18052 | 65.34847 | 383 ft | 0 kts | 44° |
| 2026-04-22 15:50 | 57.18053 | 65.34849 | 383 ft | 0 kts | 44° |